sensor_id;sensor_type;location;lat;lon;timestamp;P1;durP1;ratioP1;P2;durP2;ratioP2
59998;SDS011;45859;51.378;6.736;2023-06-10T00:01:58;7.35;;;6.65;;
59998;SDS011;45859;51.378;6.736;2023-06-10T00:04:25;7.60;;;6.95;;
59998;SDS011;45859;51.378;6.736;2023-06-10T00:06:52;8.45;;;6.93;;
59998;SDS011;45859;51.378;6.736;2023-06-10T00:09:18;7.80;;;7.10;;
59998;SDS011;45859;51.378;6.736;2023-06-10T00:11:46;7.18;;;6.57;;
59998;SDS011;45859;51.378;6.736;2023-06-10T00:14:12;7.13;;;6.47;;
59998;SDS011;45859;51.378;6.736;2023-06-10T00:16:38;7.95;;;7.00;;
59998;SDS011;45859;51.378;6.736;2023-06-10T00:19:04;9.60;;;7.50;;
59998;SDS011;45859;51.378;6.736;2023-06-10T00:21:30;8.32;;;7.57;;
59998;SDS011;45859;51.378;6.736;2023-06-10T00:24:05;7.93;;;7.22;;
59998;SDS011;45859;51.378;6.736;2023-06-10T00:26:32;7.97;;;7.28;;
59998;SDS011;45859;51.378;6.736;2023-06-10T00:29:01;8.00;;;7.32;;
59998;SDS011;45859;51.378;6.736;2023-06-10T00:31:27;7.90;;;7.10;;
59998;SDS011;45859;51.378;6.736;2023-06-10T00:33:53;7.63;;;6.93;;
59998;SDS011;45859;51.378;6.736;2023-06-10T00:36:18;8.02;;;7.32;;
59998;SDS011;45859;51.378;6.736;2023-06-10T00:38:44;7.70;;;7.00;;
59998;SDS011;45859;51.378;6.736;2023-06-10T00:41:10;8.18;;;7.45;;
59998;SDS011;45859;51.378;6.736;2023-06-10T00:43:36;8.02;;;7.32;;
59998;SDS011;45859;51.378;6.736;2023-06-10T00:46:01;9.63;;;7.72;;
59998;SDS011;45859;51.378;6.736;2023-06-10T00:48:27;9.35;;;7.28;;
59998;SDS011;45859;51.378;6.736;2023-06-10T00:50:53;8.23;;;7.22;;
59998;SDS011;45859;51.378;6.736;2023-06-10T00:53:19;9.10;;;7.45;;
59998;SDS011;45859;51.378;6.736;2023-06-10T00:55:46;8.07;;;7.20;;
59998;SDS011;45859;51.378;6.736;2023-06-10T00:58:12;8.50;;;7.53;;
59998;SDS011;45859;51.378;6.736;2023-06-10T01:00:38;8.55;;;7.72;;
59998;SDS011;45859;51.378;6.736;2023-06-10T01:03:04;10.82;;;8.15;;
59998;SDS011;45859;51.378;6.736;2023-06-10T01:05:33;8.85;;;7.95;;
59998;SDS011;45859;51.378;6.736;2023-06-10T01:10:51;9.25;;;8.20;;
59998;SDS011;45859;51.378;6.736;2023-06-10T01:13:23;8.75;;;7.90;;
59998;SDS011;45859;51.378;6.736;2023-06-10T01:15:53;8.38;;;7.55;;
59998;SDS011;45859;51.378;6.736;2023-06-10T01:18:19;8.45;;;7.40;;
59998;SDS011;45859;51.378;6.736;2023-06-10T01:20:46;8.30;;;7.53;;
59998;SDS011;45859;51.378;6.736;2023-06-10T01:23:13;8.18;;;7.47;;
59998;SDS011;45859;51.378;6.736;2023-06-10T01:25:46;9.07;;;7.97;;
59998;SDS011;45859;51.378;6.736;2023-06-10T01:31:17;8.63;;;7.93;;
59998;SDS011;45859;51.378;6.736;2023-06-10T01:33:59;8.52;;;7.72;;
59998;SDS011;45859;51.378;6.736;2023-06-10T01:36:25;8.90;;;8.20;;
59998;SDS011;45859;51.378;6.736;2023-06-10T01:38:53;8.45;;;7.75;;
59998;SDS011;45859;51.378;6.736;2023-06-10T01:41:20;8.63;;;7.80;;
59998;SDS011;45859;51.378;6.736;2023-06-10T01:43:46;9.13;;;8.32;;
59998;SDS011;45859;51.378;6.736;2023-06-10T01:46:13;8.95;;;8.05;;
59998;SDS011;45859;51.378;6.736;2023-06-10T01:48:40;9.18;;;8.27;;
59998;SDS011;45859;51.378;6.736;2023-06-10T01:51:06;9.50;;;8.38;;
59998;SDS011;45859;51.378;6.736;2023-06-10T01:53:32;12.23;;;8.07;;
59998;SDS011;45859;51.378;6.736;2023-06-10T01:55:57;9.55;;;8.50;;
59998;SDS011;45859;51.378;6.736;2023-06-10T01:58:23;9.35;;;8.45;;
59998;SDS011;45859;51.378;6.736;2023-06-10T02:00:49;9.20;;;8.40;;
59998;SDS011;45859;51.378;6.736;2023-06-10T02:03:14;9.60;;;8.70;;
59998;SDS011;45859;51.378;6.736;2023-06-10T02:05:40;9.60;;;8.65;;
59998;SDS011;45859;51.378;6.736;2023-06-10T02:08:06;9.15;;;8.23;;
59998;SDS011;45859;51.378;6.736;2023-06-10T02:10:31;8.90;;;8.00;;
59998;SDS011;45859;51.378;6.736;2023-06-10T02:12:57;9.48;;;8.55;;
59998;SDS011;45859;51.378;6.736;2023-06-10T02:15:22;10.15;;;9.15;;
59998;SDS011;45859;51.378;6.736;2023-06-10T02:17:48;9.77;;;8.88;;
59998;SDS011;45859;51.378;6.736;2023-06-10T02:20:14;9.25;;;8.35;;
59998;SDS011;45859;51.378;6.736;2023-06-10T02:22:40;9.38;;;8.32;;
59998;SDS011;45859;51.378;6.736;2023-06-10T02:25:05;9.82;;;8.75;;
59998;SDS011;45859;51.378;6.736;2023-06-10T02:27:31;10.18;;;9.15;;
59998;SDS011;45859;51.378;6.736;2023-06-10T02:29:57;9.60;;;8.57;;
59998;SDS011;45859;51.378;6.736;2023-06-10T02:32:23;9.73;;;8.82;;
59998;SDS011;45859;51.378;6.736;2023-06-10T02:34:49;9.82;;;8.93;;
59998;SDS011;45859;51.378;6.736;2023-06-10T02:37:15;9.88;;;8.65;;
59998;SDS011;45859;51.378;6.736;2023-06-10T02:39:41;10.80;;;9.73;;
59998;SDS011;45859;51.378;6.736;2023-06-10T02:42:06;9.57;;;8.68;;
59998;SDS011;45859;51.378;6.736;2023-06-10T02:44:32;9.57;;;8.68;;
59998;SDS011;45859;51.378;6.736;2023-06-10T02:46:58;10.07;;;9.05;;
59998;SDS011;45859;51.378;6.736;2023-06-10T02:49:24;9.65;;;8.85;;
59998;SDS011;45859;51.378;6.736;2023-06-10T02:51:52;9.80;;;9.00;;
59998;SDS011;45859;51.378;6.736;2023-06-10T02:54:21;9.35;;;8.45;;
59998;SDS011;45859;51.378;6.736;2023-06-10T02:56:50;9.73;;;8.85;;
59998;SDS011;45859;51.378;6.736;2023-06-10T02:59:16;10.02;;;8.70;;
59998;SDS011;45859;51.378;6.736;2023-06-10T03:01:42;10.00;;;9.10;;
59998;SDS011;45859;51.378;6.736;2023-06-10T03:04:08;11.23;;;9.27;;
59998;SDS011;45859;51.378;6.736;2023-06-10T03:06:34;9.88;;;8.90;;
59998;SDS011;45859;51.378;6.736;2023-06-10T03:09:00;10.02;;;9.13;;
59998;SDS011;45859;51.378;6.736;2023-06-10T03:11:32;10.52;;;9.55;;
59998;SDS011;45859;51.378;6.736;2023-06-10T03:14:01;9.40;;;8.50;;
59998;SDS011;45859;51.378;6.736;2023-06-10T03:16:27;9.95;;;9.05;;
59998;SDS011;45859;51.378;6.736;2023-06-10T03:18:52;10.25;;;9.02;;
59998;SDS011;45859;51.378;6.736;2023-06-10T03:21:18;10.77;;;9.52;;
59998;SDS011;45859;51.378;6.736;2023-06-10T03:23:44;10.23;;;9.23;;
59998;SDS011;45859;51.378;6.736;2023-06-10T03:26:10;10.32;;;9.32;;
59998;SDS011;45859;51.378;6.736;2023-06-10T03:28:39;9.60;;;8.80;;
59998;SDS011;45859;51.378;6.736;2023-06-10T03:31:05;10.43;;;9.27;;
59998;SDS011;45859;51.378;6.736;2023-06-10T03:33:30;10.57;;;9.38;;
59998;SDS011;45859;51.378;6.736;2023-06-10T03:35:56;10.40;;;9.45;;
59998;SDS011;45859;51.378;6.736;2023-06-10T03:38:21;10.40;;;9.00;;
59998;SDS011;45859;51.378;6.736;2023-06-10T03:40:47;10.68;;;9.15;;
59998;SDS011;45859;51.378;6.736;2023-06-10T03:43:13;13.02;;;9.77;;
59998;SDS011;45859;51.378;6.736;2023-06-10T03:45:38;10.20;;;9.13;;
59998;SDS011;45859;51.378;6.736;2023-06-10T03:48:04;10.52;;;9.45;;
59998;SDS011;45859;51.378;6.736;2023-06-10T03:50:31;10.68;;;9.75;;
59998;SDS011;45859;51.378;6.736;2023-06-10T03:52:57;10.68;;;9.65;;
59998;SDS011;45859;51.378;6.736;2023-06-10T03:55:22;10.80;;;9.77;;
59998;SDS011;45859;51.378;6.736;2023-06-10T03:57:49;11.00;;;9.90;;
59998;SDS011;45859;51.378;6.736;2023-06-10T04:00:15;11.23;;;9.32;;
59998;SDS011;45859;51.378;6.736;2023-06-10T04:02:42;11.25;;;9.82;;
59998;SDS011;45859;51.378;6.736;2023-06-10T04:05:12;10.70;;;9.60;;
59998;SDS011;45859;51.378;6.736;2023-06-10T04:07:39;14.77;;;9.70;;
59998;SDS011;45859;51.378;6.736;2023-06-10T04:10:06;10.45;;;9.45;;
59998;SDS011;45859;51.378;6.736;2023-06-10T04:12:32;11.82;;;10.15;;
59998;SDS011;45859;51.378;6.736;2023-06-10T04:14:58;10.80;;;9.80;;
59998;SDS011;45859;51.378;6.736;2023-06-10T04:17:24;11.18;;;9.70;;
59998;SDS011;45859;51.378;6.736;2023-06-10T04:19:50;10.82;;;9.75;;
59998;SDS011;45859;51.378;6.736;2023-06-10T04:22:16;10.80;;;9.80;;
59998;SDS011;45859;51.378;6.736;2023-06-10T04:24:42;10.65;;;9.65;;
59998;SDS011;45859;51.378;6.736;2023-06-10T04:27:08;11.25;;;10.13;;
59998;SDS011;45859;51.378;6.736;2023-06-10T04:29:35;11.18;;;10.05;;
59998;SDS011;45859;51.378;6.736;2023-06-10T04:32:01;12.18;;;10.00;;
59998;SDS011;45859;51.378;6.736;2023-06-10T04:34:27;10.07;;;9.20;;
59998;SDS011;45859;51.378;6.736;2023-06-10T04:36:53;10.65;;;9.65;;
59998;SDS011;45859;51.378;6.736;2023-06-10T04:39:18;10.43;;;9.52;;
59998;SDS011;45859;51.378;6.736;2023-06-10T04:41:45;11.25;;;10.20;;
59998;SDS011;45859;51.378;6.736;2023-06-10T04:44:11;11.40;;;10.40;;
59998;SDS011;45859;51.378;6.736;2023-06-10T04:46:37;10.65;;;9.65;;
59998;SDS011;45859;51.378;6.736;2023-06-10T04:49:02;11.13;;;10.13;;
59998;SDS011;45859;51.378;6.736;2023-06-10T04:51:29;11.60;;;10.55;;
59998;SDS011;45859;51.378;6.736;2023-06-10T04:53:56;11.82;;;10.50;;
59998;SDS011;45859;51.378;6.736;2023-06-10T04:56:23;12.02;;;10.85;;
59998;SDS011;45859;51.378;6.736;2023-06-10T04:58:49;12.60;;;11.30;;
59998;SDS011;45859;51.378;6.736;2023-06-10T05:01:14;12.50;;;11.18;;
59998;SDS011;45859;51.378;6.736;2023-06-10T05:03:40;11.90;;;10.80;;
59998;SDS011;45859;51.378;6.736;2023-06-10T05:06:06;13.15;;;10.30;;
59998;SDS011;45859;51.378;6.736;2023-06-10T05:08:31;11.73;;;10.50;;
59998;SDS011;45859;51.378;6.736;2023-06-10T05:10:58;12.23;;;10.98;;
59998;SDS011;45859;51.378;6.736;2023-06-10T05:13:23;11.13;;;10.00;;
59998;SDS011;45859;51.378;6.736;2023-06-10T05:15:49;11.27;;;10.27;;
59998;SDS011;45859;51.378;6.736;2023-06-10T05:18:14;11.48;;;10.20;;
59998;SDS011;45859;51.378;6.736;2023-06-10T05:20:40;10.90;;;9.80;;
59998;SDS011;45859;51.378;6.736;2023-06-10T05:23:06;12.07;;;10.88;;
59998;SDS011;45859;51.378;6.736;2023-06-10T05:25:32;10.90;;;9.80;;
59998;SDS011;45859;51.378;6.736;2023-06-10T05:27:57;12.10;;;10.93;;
59998;SDS011;45859;51.378;6.736;2023-06-10T05:30:23;11.70;;;10.60;;
59998;SDS011;45859;51.378;6.736;2023-06-10T05:32:50;11.07;;;9.98;;
59998;SDS011;45859;51.378;6.736;2023-06-10T05:35:16;11.65;;;10.63;;
59998;SDS011;45859;51.378;6.736;2023-06-10T05:37:42;11.43;;;10.20;;
59998;SDS011;45859;51.378;6.736;2023-06-10T05:40:08;11.88;;;10.68;;
59998;SDS011;45859;51.378;6.736;2023-06-10T05:42:34;10.73;;;9.73;;
59998;SDS011;45859;51.378;6.736;2023-06-10T05:45:00;10.20;;;9.27;;
59998;SDS011;45859;51.378;6.736;2023-06-10T05:47:26;10.82;;;9.82;;
59998;SDS011;45859;51.378;6.736;2023-06-10T05:49:51;10.60;;;9.52;;
59998;SDS011;45859;51.378;6.736;2023-06-10T05:52:17;11.65;;;9.80;;
59998;SDS011;45859;51.378;6.736;2023-06-10T05:54:43;10.02;;;8.68;;
59998;SDS011;45859;51.378;6.736;2023-06-10T05:57:09;10.27;;;8.70;;
59998;SDS011;45859;51.378;6.736;2023-06-10T05:59:35;9.05;;;8.15;;
59998;SDS011;45859;51.378;6.736;2023-06-10T06:02:01;9.43;;;8.48;;
59998;SDS011;45859;51.378;6.736;2023-06-10T06:04:26;9.43;;;8.57;;
59998;SDS011;45859;51.378;6.736;2023-06-10T06:06:52;8.30;;;7.50;;
59998;SDS011;45859;51.378;6.736;2023-06-10T06:09:17;8.68;;;7.70;;
59998;SDS011;45859;51.378;6.736;2023-06-10T06:11:43;8.35;;;7.60;;
59998;SDS011;45859;51.378;6.736;2023-06-10T06:14:09;8.43;;;7.63;;
59998;SDS011;45859;51.378;6.736;2023-06-10T06:16:34;7.93;;;7.28;;
59998;SDS011;45859;51.378;6.736;2023-06-10T06:19:00;9.52;;;7.85;;
59998;SDS011;45859;51.378;6.736;2023-06-10T06:21:26;8.93;;;7.63;;
59998;SDS011;45859;51.378;6.736;2023-06-10T06:23:51;7.88;;;7.18;;
59998;SDS011;45859;51.378;6.736;2023-06-10T06:26:17;8.13;;;7.32;;
59998;SDS011;45859;51.378;6.736;2023-06-10T06:28:43;8.65;;;7.43;;
59998;SDS011;45859;51.378;6.736;2023-06-10T06:31:08;8.05;;;7.20;;
59998;SDS011;45859;51.378;6.736;2023-06-10T06:33:34;7.15;;;6.45;;
59998;SDS011;45859;51.378;6.736;2023-06-10T06:35:59;8.27;;;6.75;;
59998;SDS011;45859;51.378;6.736;2023-06-10T06:38:25;7.35;;;6.68;;
59998;SDS011;45859;51.378;6.736;2023-06-10T06:40:51;6.82;;;6.22;;
59998;SDS011;45859;51.378;6.736;2023-06-10T06:43:17;6.60;;;6.00;;
59998;SDS011;45859;51.378;6.736;2023-06-10T06:45:43;8.57;;;6.70;;
59998;SDS011;45859;51.378;6.736;2023-06-10T06:48:10;6.70;;;6.13;;
59998;SDS011;45859;51.378;6.736;2023-06-10T06:50:36;6.47;;;5.88;;
59998;SDS011;45859;51.378;6.736;2023-06-10T06:53:02;7.88;;;5.97;;
59998;SDS011;45859;51.378;6.736;2023-06-10T06:55:28;6.88;;;5.63;;
59998;SDS011;45859;51.378;6.736;2023-06-10T06:57:53;7.00;;;6.30;;
59998;SDS011;45859;51.378;6.736;2023-06-10T07:00:19;6.70;;;6.10;;
59998;SDS011;45859;51.378;6.736;2023-06-10T07:02:45;6.70;;;6.00;;
59998;SDS011;45859;51.378;6.736;2023-06-10T07:05:10;8.27;;;5.50;;
59998;SDS011;45859;51.378;6.736;2023-06-10T07:07:36;7.28;;;6.32;;
59998;SDS011;45859;51.378;6.736;2023-06-10T07:10:01;6.78;;;5.38;;
59998;SDS011;45859;51.378;6.736;2023-06-10T07:12:27;6.30;;;5.50;;
59998;SDS011;45859;51.378;6.736;2023-06-10T07:14:53;6.70;;;6.05;;
59998;SDS011;45859;51.378;6.736;2023-06-10T07:17:18;8.73;;;6.13;;
59998;SDS011;45859;51.378;6.736;2023-06-10T07:19:44;5.75;;;5.25;;
59998;SDS011;45859;51.378;6.736;2023-06-10T07:22:11;5.90;;;5.30;;
59998;SDS011;45859;51.378;6.736;2023-06-10T07:24:36;5.75;;;5.03;;
59998;SDS011;45859;51.378;6.736;2023-06-10T07:27:02;6.97;;;5.10;;
59998;SDS011;45859;51.378;6.736;2023-06-10T07:29:29;5.80;;;5.30;;
59998;SDS011;45859;51.378;6.736;2023-06-10T07:31:54;5.50;;;5.00;;
59998;SDS011;45859;51.378;6.736;2023-06-10T07:34:20;6.95;;;5.50;;
59998;SDS011;45859;51.378;6.736;2023-06-10T07:36:46;9.07;;;5.00;;
59998;SDS011;45859;51.378;6.736;2023-06-10T07:39:12;5.68;;;5.28;;
59998;SDS011;45859;51.378;6.736;2023-06-10T07:41:38;5.60;;;5.10;;
59998;SDS011;45859;51.378;6.736;2023-06-10T07:44:03;5.47;;;4.95;;
59998;SDS011;45859;51.378;6.736;2023-06-10T07:46:29;5.57;;;5.00;;
59998;SDS011;45859;51.378;6.736;2023-06-10T07:48:55;5.60;;;5.10;;
59998;SDS011;45859;51.378;6.736;2023-06-10T07:51:20;6.32;;;5.72;;
59998;SDS011;45859;51.378;6.736;2023-06-10T07:53:46;7.20;;;5.60;;
59998;SDS011;45859;51.378;6.736;2023-06-10T07:56:12;5.75;;;5.20;;
59998;SDS011;45859;51.378;6.736;2023-06-10T07:58:38;6.07;;;5.38;;
59998;SDS011;45859;51.378;6.736;2023-06-10T08:01:03;5.70;;;5.20;;
59998;SDS011;45859;51.378;6.736;2023-06-10T08:03:29;5.47;;;4.78;;
59998;SDS011;45859;51.378;6.736;2023-06-10T08:05:55;5.85;;;5.30;;
59998;SDS011;45859;51.378;6.736;2023-06-10T08:08:20;5.15;;;4.60;;
59998;SDS011;45859;51.378;6.736;2023-06-10T08:10:46;7.03;;;5.00;;
59998;SDS011;45859;51.378;6.736;2023-06-10T08:13:12;6.07;;;4.97;;
59998;SDS011;45859;51.378;6.736;2023-06-10T08:15:37;6.00;;;5.38;;
59998;SDS011;45859;51.378;6.736;2023-06-10T08:18:03;7.50;;;5.30;;
59998;SDS011;45859;51.378;6.736;2023-06-10T08:20:29;5.38;;;4.90;;
59998;SDS011;45859;51.378;6.736;2023-06-10T08:22:54;6.50;;;4.40;;
59998;SDS011;45859;51.378;6.736;2023-06-10T08:25:20;5.63;;;4.80;;
59998;SDS011;45859;51.378;6.736;2023-06-10T08:27:47;5.88;;;5.00;;
59998;SDS011;45859;51.378;6.736;2023-06-10T08:30:13;6.80;;;4.70;;
59998;SDS011;45859;51.378;6.736;2023-06-10T08:32:39;9.60;;;5.53;;
59998;SDS011;45859;51.378;6.736;2023-06-10T08:35:05;5.85;;;5.05;;
59998;SDS011;45859;51.378;6.736;2023-06-10T08:37:30;6.03;;;4.85;;
59998;SDS011;45859;51.378;6.736;2023-06-10T08:39:56;6.05;;;4.60;;
59998;SDS011;45859;51.378;6.736;2023-06-10T08:44:58;5.38;;;4.90;;
59998;SDS011;45859;51.378;6.736;2023-06-10T08:47:27;5.80;;;5.28;;
59998;SDS011;45859;51.378;6.736;2023-06-10T08:49:56;6.35;;;5.38;;
59998;SDS011;45859;51.378;6.736;2023-06-10T08:52:28;5.63;;;5.07;;
59998;SDS011;45859;51.378;6.736;2023-06-10T08:54:59;5.32;;;4.72;;
59998;SDS011;45859;51.378;6.736;2023-06-10T08:57:29;7.13;;;5.13;;
59998;SDS011;45859;51.378;6.736;2023-06-10T08:59:56;5.72;;;5.10;;
59998;SDS011;45859;51.378;6.736;2023-06-10T09:02:23;6.20;;;4.90;;
59998;SDS011;45859;51.378;6.736;2023-06-10T09:04:49;5.45;;;4.95;;
59998;SDS011;45859;51.378;6.736;2023-06-10T09:07:16;5.65;;;5.15;;
59998;SDS011;45859;51.378;6.736;2023-06-10T09:09:42;7.13;;;5.50;;
59998;SDS011;45859;51.378;6.736;2023-06-10T09:12:09;6.20;;;5.30;;
59998;SDS011;45859;51.378;6.736;2023-06-10T09:14:35;6.00;;;5.15;;
59998;SDS011;45859;51.378;6.736;2023-06-10T09:17:02;5.68;;;5.18;;
59998;SDS011;45859;51.378;6.736;2023-06-10T09:19:28;8.27;;;5.05;;
59998;SDS011;45859;51.378;6.736;2023-06-10T09:21:54;7.30;;;5.45;;
59998;SDS011;45859;51.378;6.736;2023-06-10T09:24:23;5.65;;;5.10;;
59998;SDS011;45859;51.378;6.736;2023-06-10T09:26:50;5.03;;;4.63;;
59998;SDS011;45859;51.378;6.736;2023-06-10T09:29:26;5.47;;;4.97;;
59998;SDS011;45859;51.378;6.736;2023-06-10T09:31:52;5.25;;;4.75;;
59998;SDS011;45859;51.378;6.736;2023-06-10T09:34:18;5.43;;;4.82;;
59998;SDS011;45859;51.378;6.736;2023-06-10T09:36:43;6.28;;;5.20;;
59998;SDS011;45859;51.378;6.736;2023-06-10T09:39:14;6.00;;;5.05;;
59998;SDS011;45859;51.378;6.736;2023-06-10T09:41:41;6.70;;;5.20;;
59998;SDS011;45859;51.378;6.736;2023-06-10T09:44:13;7.93;;;5.18;;
59998;SDS011;45859;51.378;6.736;2023-06-10T09:46:46;8.93;;;5.18;;
59998;SDS011;45859;51.378;6.736;2023-06-10T09:49:14;5.60;;;5.03;;
59998;SDS011;45859;51.378;6.736;2023-06-10T09:51:51;5.50;;;4.97;;
59998;SDS011;45859;51.378;6.736;2023-06-10T09:54:17;5.70;;;5.10;;
59998;SDS011;45859;51.378;6.736;2023-06-10T09:56:43;5.35;;;4.82;;
59998;SDS011;45859;51.378;6.736;2023-06-10T09:59:16;7.07;;;5.10;;
59998;SDS011;45859;51.378;6.736;2023-06-10T10:01:56;6.18;;;5.25;;
59998;SDS011;45859;51.378;6.736;2023-06-10T10:04:25;7.25;;;4.85;;
59998;SDS011;45859;51.378;6.736;2023-06-10T10:06:51;5.68;;;5.05;;
59998;SDS011;45859;51.378;6.736;2023-06-10T10:09:17;5.78;;;5.18;;
59998;SDS011;45859;51.378;6.736;2023-06-10T10:11:43;6.53;;;5.20;;
59998;SDS011;45859;51.378;6.736;2023-06-10T10:14:09;7.35;;;5.85;;
59998;SDS011;45859;51.378;6.736;2023-06-10T10:16:37;6.90;;;5.85;;
59998;SDS011;45859;51.378;6.736;2023-06-10T10:19:16;7.30;;;5.57;;
59998;SDS011;45859;51.378;6.736;2023-06-10T10:21:52;8.63;;;5.50;;
59998;SDS011;45859;51.378;6.736;2023-06-10T10:24:21;9.15;;;6.22;;
59998;SDS011;45859;51.378;6.736;2023-06-10T10:26:52;6.32;;;5.72;;
59998;SDS011;45859;51.378;6.736;2023-06-10T10:29:28;8.30;;;6.18;;
59998;SDS011;45859;51.378;6.736;2023-06-10T10:31:58;6.20;;;5.60;;
59998;SDS011;45859;51.378;6.736;2023-06-10T10:34:47;6.03;;;5.45;;
59998;SDS011;45859;51.378;6.736;2023-06-10T10:37:19;6.00;;;5.50;;
59998;SDS011;45859;51.378;6.736;2023-06-10T10:39:45;8.75;;;5.90;;
59998;SDS011;45859;51.378;6.736;2023-06-10T10:42:11;10.30;;;6.53;;
59998;SDS011;45859;51.378;6.736;2023-06-10T10:44:38;6.53;;;6.03;;
59998;SDS011;45859;51.378;6.736;2023-06-10T10:47:05;6.43;;;5.80;;
59998;SDS011;45859;51.378;6.736;2023-06-10T10:49:34;5.70;;;5.20;;
59998;SDS011;45859;51.378;6.736;2023-06-10T10:52:02;6.47;;;5.85;;
59998;SDS011;45859;51.378;6.736;2023-06-10T10:54:36;6.22;;;5.63;;
59998;SDS011;45859;51.378;6.736;2023-06-10T11:00:12;7.82;;;6.03;;
59998;SDS011;45859;51.378;6.736;2023-06-10T11:04:58;9.82;;;6.07;;
59998;SDS011;45859;51.378;6.736;2023-06-10T11:07:25;7.30;;;5.95;;
59998;SDS011;45859;51.378;6.736;2023-06-10T11:09:58;8.25;;;6.15;;
59998;SDS011;45859;51.378;6.736;2023-06-10T11:12:24;6.60;;;6.00;;
59998;SDS011;45859;51.378;6.736;2023-06-10T11:14:54;6.43;;;5.82;;
59998;SDS011;45859;51.378;6.736;2023-06-10T11:17:23;6.50;;;5.90;;
59998;SDS011;45859;51.378;6.736;2023-06-10T11:19:49;6.57;;;5.85;;
59998;SDS011;45859;51.378;6.736;2023-06-10T11:22:17;7.45;;;5.80;;
59998;SDS011;45859;51.378;6.736;2023-06-10T11:24:50;6.93;;;5.70;;
59998;SDS011;45859;51.378;6.736;2023-06-10T11:27:22;7.18;;;6.03;;
59998;SDS011;45859;51.378;6.736;2023-06-10T11:32:23;6.43;;;5.70;;
59998;SDS011;45859;51.378;6.736;2023-06-10T11:34:53;9.05;;;6.72;;
59998;SDS011;45859;51.378;6.736;2023-06-10T11:37:20;8.68;;;5.53;;
59998;SDS011;45859;51.378;6.736;2023-06-10T11:39:46;6.35;;;5.72;;
59998;SDS011;45859;51.378;6.736;2023-06-10T11:42:16;6.20;;;5.60;;
59998;SDS011;45859;51.378;6.736;2023-06-10T11:44:48;7.70;;;6.20;;
59998;SDS011;45859;51.378;6.736;2023-06-10T11:47:17;6.95;;;6.25;;
59998;SDS011;45859;51.378;6.736;2023-06-10T11:49:44;7.57;;;6.30;;
59998;SDS011;45859;51.378;6.736;2023-06-10T11:52:10;6.75;;;6.05;;
59998;SDS011;45859;51.378;6.736;2023-06-10T11:54:37;7.25;;;5.97;;
59998;SDS011;45859;51.378;6.736;2023-06-10T11:57:03;7.13;;;5.75;;
59998;SDS011;45859;51.378;6.736;2023-06-10T11:59:29;6.78;;;6.20;;
59998;SDS011;45859;51.378;6.736;2023-06-10T12:01:56;8.82;;;6.00;;
59998;SDS011;45859;51.378;6.736;2023-06-10T12:04:22;7.50;;;5.88;;
59998;SDS011;45859;51.378;6.736;2023-06-10T12:06:51;7.78;;;6.40;;
59998;SDS011;45859;51.378;6.736;2023-06-10T12:11:55;6.28;;;5.63;;
59998;SDS011;45859;51.378;6.736;2023-06-10T12:17:16;7.90;;;6.22;;
59998;SDS011;45859;51.378;6.736;2023-06-10T12:19:42;7.05;;;6.15;;
59998;SDS011;45859;51.378;6.736;2023-06-10T12:22:07;7.40;;;6.30;;
59998;SDS011;45859;51.378;6.736;2023-06-10T12:24:34;7.22;;;6.50;;
59998;SDS011;45859;51.378;6.736;2023-06-10T12:27:22;7.65;;;6.72;;
59998;SDS011;45859;51.378;6.736;2023-06-10T12:29:52;6.50;;;5.90;;
59998;SDS011;45859;51.378;6.736;2023-06-10T12:32:20;8.20;;;6.32;;
59998;SDS011;45859;51.378;6.736;2023-06-10T12:35:01;6.75;;;6.13;;
59998;SDS011;45859;51.378;6.736;2023-06-10T12:37:28;7.20;;;6.50;;
59998;SDS011;45859;51.378;6.736;2023-06-10T12:39:54;6.95;;;6.22;;
59998;SDS011;45859;51.378;6.736;2023-06-10T12:42:21;6.90;;;6.20;;
59998;SDS011;45859;51.378;6.736;2023-06-10T12:44:52;7.53;;;6.68;;
59998;SDS011;45859;51.378;6.736;2023-06-10T12:47:18;7.28;;;6.57;;
59998;SDS011;45859;51.378;6.736;2023-06-10T12:49:44;7.07;;;6.50;;
59998;SDS011;45859;51.378;6.736;2023-06-10T12:52:10;9.20;;;6.60;;
59998;SDS011;45859;51.378;6.736;2023-06-10T12:54:35;6.90;;;6.20;;
59998;SDS011;45859;51.378;6.736;2023-06-10T12:57:01;7.57;;;6.50;;
59998;SDS011;45859;51.378;6.736;2023-06-10T12:59:27;7.07;;;6.28;;
59998;SDS011;45859;51.378;6.736;2023-06-10T13:01:54;7.90;;;6.45;;
59998;SDS011;45859;51.378;6.736;2023-06-10T13:04:20;7.15;;;6.55;;
59998;SDS011;45859;51.378;6.736;2023-06-10T13:06:46;8.35;;;6.63;;
59998;SDS011;45859;51.378;6.736;2023-06-10T13:09:14;6.95;;;6.13;;
59998;SDS011;45859;51.378;6.736;2023-06-10T13:11:40;7.15;;;6.30;;
59998;SDS011;45859;51.378;6.736;2023-06-10T13:14:06;7.32;;;6.55;;
59998;SDS011;45859;51.378;6.736;2023-06-10T13:16:32;7.45;;;6.75;;
59998;SDS011;45859;51.378;6.736;2023-06-10T13:18:58;7.03;;;6.45;;
59998;SDS011;45859;51.378;6.736;2023-06-10T13:21:24;6.80;;;6.20;;
59998;SDS011;45859;51.378;6.736;2023-06-10T13:23:50;7.68;;;6.85;;
59998;SDS011;45859;51.378;6.736;2023-06-10T13:26:16;6.82;;;6.13;;
59998;SDS011;45859;51.378;6.736;2023-06-10T13:28:45;7.32;;;6.45;;
59998;SDS011;45859;51.378;6.736;2023-06-10T13:31:11;7.35;;;6.65;;
59998;SDS011;45859;51.378;6.736;2023-06-10T13:33:36;6.93;;;6.32;;
59998;SDS011;45859;51.378;6.736;2023-06-10T13:36:03;6.82;;;6.18;;
59998;SDS011;45859;51.378;6.736;2023-06-10T13:38:29;8.00;;;7.18;;
59998;SDS011;45859;51.378;6.736;2023-06-10T13:40:54;7.72;;;6.95;;
59998;SDS011;45859;51.378;6.736;2023-06-10T13:43:20;7.60;;;6.90;;
59998;SDS011;45859;51.378;6.736;2023-06-10T13:45:46;7.55;;;6.82;;
59998;SDS011;45859;51.378;6.736;2023-06-10T13:48:11;7.63;;;6.82;;
59998;SDS011;45859;51.378;6.736;2023-06-10T13:50:37;6.55;;;6.05;;
59998;SDS011;45859;51.378;6.736;2023-06-10T13:53:03;10.38;;;7.07;;
59998;SDS011;45859;51.378;6.736;2023-06-10T13:55:28;7.75;;;6.90;;
59998;SDS011;45859;51.378;6.736;2023-06-10T13:57:54;7.05;;;6.45;;
59998;SDS011;45859;51.378;6.736;2023-06-10T14:00:20;7.78;;;6.93;;
59998;SDS011;45859;51.378;6.736;2023-06-10T14:02:46;9.18;;;6.80;;
59998;SDS011;45859;51.378;6.736;2023-06-10T14:05:11;7.38;;;6.68;;
59998;SDS011;45859;51.378;6.736;2023-06-10T14:07:37;7.75;;;6.85;;
59998;SDS011;45859;51.378;6.736;2023-06-10T14:10:03;7.60;;;6.15;;
59998;SDS011;45859;51.378;6.736;2023-06-10T14:12:29;7.53;;;6.50;;
59998;SDS011;45859;51.378;6.736;2023-06-10T14:14:54;6.82;;;6.18;;
59998;SDS011;45859;51.378;6.736;2023-06-10T14:17:20;7.40;;;6.60;;
59998;SDS011;45859;51.378;6.736;2023-06-10T14:19:45;6.57;;;6.07;;
59998;SDS011;45859;51.378;6.736;2023-06-10T14:22:11;7.22;;;6.60;;
59998;SDS011;45859;51.378;6.736;2023-06-10T14:24:37;7.43;;;6.07;;
59998;SDS011;45859;51.378;6.736;2023-06-10T14:27:03;7.13;;;6.45;;
59998;SDS011;45859;51.378;6.736;2023-06-10T14:29:29;8.10;;;6.90;;
59998;SDS011;45859;51.378;6.736;2023-06-10T14:31:56;7.43;;;6.68;;
59998;SDS011;45859;51.378;6.736;2023-06-10T14:34:22;8.70;;;6.50;;
59998;SDS011;45859;51.378;6.736;2023-06-10T14:36:53;8.75;;;7.85;;
59998;SDS011;45859;51.378;6.736;2023-06-10T14:39:19;7.20;;;6.50;;
59998;SDS011;45859;51.378;6.736;2023-06-10T14:41:45;7.05;;;6.35;;
59998;SDS011;45859;51.378;6.736;2023-06-10T14:44:10;7.20;;;6.55;;
59998;SDS011;45859;51.378;6.736;2023-06-10T14:46:36;8.18;;;7.03;;
59998;SDS011;45859;51.378;6.736;2023-06-10T14:49:02;7.40;;;6.65;;
59998;SDS011;45859;51.378;6.736;2023-06-10T14:51:27;7.05;;;6.38;;
59998;SDS011;45859;51.378;6.736;2023-06-10T14:53:53;7.35;;;6.75;;
59998;SDS011;45859;51.378;6.736;2023-06-10T14:56:19;7.53;;;6.88;;
59998;SDS011;45859;51.378;6.736;2023-06-10T14:58:44;7.30;;;6.63;;
59998;SDS011;45859;51.378;6.736;2023-06-10T15:01:10;6.90;;;6.30;;
59998;SDS011;45859;51.378;6.736;2023-06-10T15:03:35;7.82;;;6.18;;